Time;durP1;ratioP1;P1;durP2;ratioP2;P2;SDS_P1;SDS_P2;PMS_P1;PMS_P2;Temp;Humidity;BMP_temperature;BMP_pressure;BME280_temperature;BME280_humidity;BME280_pressure;Samples;Min_cycle;Max_cycle;Signal;HPM_P1;HPM_P2
2023/04/01 00:00:20;;;;;;;43.10;7.90;;;10.20;99.90;;;;;;5086946;28;20026;-71
2023/04/01 00:02:46;;;;;;;39.05;7.22;;;10.20;99.90;;;;;;5089745;28;20466;-70
2023/04/01 00:05:12;;;;;;;56.22;8.63;;;10.20;99.90;;;;;;5088023;28;20115;-71
2023/04/01 00:07:39;;;;;;;64.50;9.52;;;10.10;99.90;;;;;;5089593;28;20048;-70
2023/04/01 00:10:06;;;;;;;66.18;9.85;;;10.10;99.90;;;;;;5092609;28;20023;-72
2023/04/01 00:12:33;;;;;;;79.32;8.95;;;10.10;99.90;;;;;;5092470;28;20031;-71
2023/04/01 00:15:02;;;;;;;61.83;7.25;;;10.20;99.90;;;;;;5090176;28;20464;-72
2023/04/01 00:17:27;;;;;;;56.10;8.40;;;10.20;99.90;;;;;;5086364;28;20028;-70
2023/04/01 00:20:00;;;;;;;58.65;7.63;;;10.20;99.90;;;;;;5091115;28;20697;-71
2023/04/01 00:22:26;;;;;;;48.80;7.30;;;10.20;99.90;;;;;;5092598;28;20063;-70
2023/04/01 00:24:53;;;;;;;57.03;6.40;;;10.20;99.90;;;;;;5088944;28;20043;-71
2023/04/01 00:27:19;;;;;;;47.25;6.18;;;10.20;99.90;;;;;;5090940;28;20035;-70
2023/04/01 00:29:46;;;;;;;33.95;6.78;;;10.20;99.90;;;;;;5093665;28;20040;-70
2023/04/01 00:32:12;;;;;;;38.20;6.97;;;10.20;99.90;;;;;;5091125;28;20080;-70
2023/04/01 00:34:39;;;;;;;35.35;6.40;;;10.20;99.90;;;;;;5092273;28;20035;-70
2023/04/01 00:37:06;;;;;;;38.03;8.10;;;10.20;99.90;;;;;;5088850;28;20016;-70
2023/04/01 00:39:32;;;;;;;38.05;7.25;;;10.20;99.90;;;;;;5092426;28;20028;-70
2023/04/01 00:41:58;;;;;;;34.22;6.50;;;10.30;99.90;;;;;;5077435;28;20431;-70
2023/04/01 00:44:27;;;;;;;37.08;7.45;;;10.20;99.90;;;;;;5091248;28;20054;-70
2023/04/01 00:46:53;;;;;;;36.83;8.25;;;10.30;99.90;;;;;;5092122;28;20028;-69
2023/04/01 00:49:21;;;;;;;30.00;8.30;;;10.30;99.90;;;;;;5093460;28;20096;-69
2023/04/01 00:51:50;;;;;;;32.78;6.43;;;10.30;99.90;;;;;;5092694;28;20090;-70
2023/04/01 00:54:17;;;;;;;26.95;7.90;;;10.40;99.90;;;;;;5089241;28;20032;-70
2023/04/01 00:56:51;;;;;;;24.52;7.05;;;10.40;99.90;;;;;;5087413;28;20028;-70
2023/04/01 00:59:22;;;;;;;27.52;8.07;;;10.40;99.90;;;;;;5083974;28;20028;-71
2023/04/01 01:01:47;;;;;;;28.60;7.67;;;10.40;99.90;;;;;;5082132;28;20036;-70
2023/04/01 01:04:29;;;;;;;31.00;8.85;;;10.40;99.90;;;;;;5092042;28;20035;-70
2023/04/01 01:07:03;;;;;;;38.10;8.18;;;10.40;99.90;;;;;;5092442;28;20770;-70
2023/04/01 01:09:55;;;;;;;33.15;9.10;;;10.40;99.90;;;;;;5076749;28;20067;-70
2023/04/01 01:12:34;;;;;;;45.75;12.95;;;10.40;99.90;;;;;;5088950;28;20031;-70
2023/04/01 01:15:07;;;;;;;39.55;9.55;;;10.40;99.90;;;;;;5090838;28;20059;-70
2023/04/01 01:17:48;;;;;;;37.40;8.38;;;10.40;99.90;;;;;;5093335;28;20035;-70
2023/04/01 01:20:35;;;;;;;45.40;10.13;;;10.40;99.90;;;;;;5093124;28;20028;-69
2023/04/01 01:23:38;;;;;;;36.83;7.10;;;10.40;99.90;;;;;;5089788;28;20024;-70
2023/04/01 01:26:09;;;;;;;29.83;6.82;;;10.40;99.90;;;;;;5087373;28;20047;-71
2023/04/01 01:29:00;;;;;;;27.63;5.75;;;10.40;99.90;;;;;;5091009;28;20039;-70
2023/04/01 01:31:43;;;;;;;22.38;4.65;;;10.40;99.90;;;;;;5086243;28;20020;-70
2023/04/01 01:34:26;;;;;;;23.10;5.25;;;10.40;99.90;;;;;;5092581;28;20461;-70
2023/04/01 01:36:59;;;;;;;29.00;5.28;;;10.40;99.90;;;;;;5092245;28;20432;-70
2023/04/01 01:39:29;;;;;;;26.00;6.32;;;10.40;99.90;;;;;;5092682;28;20024;-69
2023/04/01 01:42:02;;;;;;;27.85;5.70;;;10.40;99.90;;;;;;5090297;28;20089;-71
2023/04/01 01:44:31;;;;;;;25.75;5.82;;;10.40;99.90;;;;;;5090657;28;20426;-72
2023/04/01 01:46:57;;;;;;;20.38;5.88;;;10.40;99.90;;;;;;5091027;28;20066;-72
2023/04/01 01:49:24;;;;;;;23.58;6.78;;;10.40;99.90;;;;;;5091514;28;20063;-72
2023/04/01 01:51:50;;;;;;;22.88;6.47;;;10.40;99.90;;;;;;5090460;28;20427;-72
2023/04/01 01:54:19;;;;;;;25.58;6.88;;;10.40;99.90;;;;;;5090430;28;20031;-71
2023/04/01 01:56:49;;;;;;;23.77;6.15;;;10.50;99.90;;;;;;5092525;28;20039;-72
2023/04/01 01:59:17;;;;;;;21.58;6.25;;;10.50;99.90;;;;;;5092673;28;20032;-72
2023/04/01 02:01:47;;;;;;;25.38;8.32;;;10.50;99.90;;;;;;5090602;28;20058;-71
2023/04/01 02:04:15;;;;;;;28.35;9.07;;;10.50;99.90;;;;;;5091656;28;20116;-71
2023/04/01 02:06:53;;;;;;;37.60;13.40;;;10.50;99.90;;;;;;5092625;28;20047;-72
2023/04/01 02:09:19;;;;;;;40.10;12.55;;;10.50;99.90;;;;;;5092357;28;20136;-72
2023/04/01 02:11:51;;;;;;;39.38;14.57;;;10.60;99.90;;;;;;5091028;28;20383;-73
2023/04/01 02:14:26;;;;;;;45.28;16.10;;;10.60;99.90;;;;;;5080070;28;20029;-72
2023/04/01 02:17:00;;;;;;;41.78;16.98;;;10.60;99.90;;;;;;5072304;28;20029;-72
2023/04/01 02:19:35;;;;;;;45.25;17.25;;;10.60;99.90;;;;;;5071747;28;20032;-72
2023/04/01 02:22:04;;;;;;;43.58;17.10;;;10.70;99.90;;;;;;5081563;28;20039;-73
2023/04/01 02:24:32;;;;;;;46.95;18.27;;;10.70;99.90;;;;;;5091423;28;20024;-71
2023/04/01 02:26:57;;;;;;;45.60;18.10;;;10.70;99.90;;;;;;5092361;28;20020;-71
2023/04/01 02:29:27;;;;;;;43.42;17.35;;;10.70;99.90;;;;;;5092279;28;20050;-71
2023/04/01 02:31:53;;;;;;;44.33;16.48;;;10.70;99.90;;;;;;5090909;28;20089;-72
2023/04/01 02:34:21;;;;;;;45.45;17.77;;;10.80;99.90;;;;;;5092028;28;20047;-71
2023/04/01 02:36:48;;;;;;;40.08;15.00;;;10.80;99.90;;;;;;5091982;28;20032;-71
2023/04/01 02:39:14;;;;;;;37.67;13.90;;;10.80;99.90;;;;;;5091336;28;20111;-71
2023/04/01 02:41:44;;;;;;;33.67;11.80;;;10.80;99.90;;;;;;5090599;28;20430;-71
2023/04/01 02:44:12;;;;;;;31.92;10.40;;;10.80;99.90;;;;;;5091975;28;20463;-71
2023/04/01 02:46:37;;;;;;;28.52;10.90;;;10.80;99.90;;;;;;5091592;28;20207;-71
2023/04/01 02:49:03;;;;;;;32.58;12.55;;;10.90;99.90;;;;;;5092536;28;20422;-71
2023/04/01 02:51:29;;;;;;;33.15;12.10;;;10.90;99.90;;;;;;5095281;28;20129;-71
2023/04/01 02:53:55;;;;;;;32.90;12.38;;;10.90;99.90;;;;;;5095867;28;20108;-71
2023/04/01 02:56:21;;;;;;;34.05;11.57;;;10.90;99.90;;;;;;5095413;28;20032;-71
2023/04/01 02:58:47;;;;;;;32.25;11.70;;;10.90;99.90;;;;;;5095375;28;20028;-70
2023/04/01 03:01:12;;;;;;;30.63;13.52;;;11.00;99.90;;;;;;5092894;28;20035;-71
2023/04/01 03:03:39;;;;;;;29.05;12.23;;;10.90;99.90;;;;;;5095263;28;20117;-71
2023/04/01 03:06:10;;;;;;;33.38;11.57;;;10.90;99.90;;;;;;5095365;28;20028;-70
2023/04/01 03:08:36;;;;;;;37.63;14.87;;;10.90;99.90;;;;;;5095798;28;20104;-70
2023/04/01 03:11:01;;;;;;;39.22;15.02;;;10.90;99.90;;;;;;5093349;28;20752;-70
2023/04/01 03:13:27;;;;;;;42.28;17.60;;;10.90;99.90;;;;;;5095498;28;20024;-70
2023/04/01 03:15:53;;;;;;;40.10;16.33;;;10.90;99.90;;;;;;5094831;28;20396;-71
2023/04/01 03:18:19;;;;;;;48.65;19.63;;;10.90;99.90;;;;;;5094998;28;20495;-70
2023/04/01 03:20:44;;;;;;;50.53;19.23;;;10.90;99.90;;;;;;5094285;28;20028;-70
2023/04/01 03:23:10;;;;;;;41.88;16.40;;;10.90;99.90;;;;;;5093525;28;20028;-70
2023/04/01 03:25:36;;;;;;;35.30;16.00;;;10.90;99.90;;;;;;5093407;28;20534;-70
2023/04/01 03:28:02;;;;;;;34.35;14.25;;;10.90;99.90;;;;;;5094915;28;20061;-71
2023/04/01 03:30:29;;;;;;;39.05;15.05;;;10.90;99.90;;;;;;5092955;28;20058;-71
2023/04/01 03:32:55;;;;;;;37.22;14.48;;;10.90;99.90;;;;;;5076523;28;20048;-71
2023/04/01 03:35:20;;;;;;;33.50;15.27;;;10.90;99.90;;;;;;5095041;28;20043;-70
2023/04/01 03:37:46;;;;;;;34.90;14.18;;;10.90;99.90;;;;;;5095094;28;20132;-70
2023/04/01 03:40:12;;;;;;;32.13;14.15;;;10.90;99.90;;;;;;5092671;28;20086;-70
2023/04/01 03:42:38;;;;;;;40.50;14.70;;;10.90;99.90;;;;;;5092749;28;20031;-70
2023/04/01 03:45:04;;;;;;;36.22;14.07;;;10.90;99.90;;;;;;5094360;28;20024;-70
2023/04/01 03:47:30;;;;;;;42.63;18.10;;;10.90;99.90;;;;;;5094651;28;20036;-70
2023/04/01 03:49:56;;;;;;;38.33;17.52;;;10.90;99.90;;;;;;5089917;28;20028;-70
2023/04/01 03:52:21;;;;;;;34.80;14.50;;;10.80;99.90;;;;;;5076014;28;20085;-70
2023/04/01 03:54:47;;;;;;;43.50;18.92;;;10.80;99.90;;;;;;5094431;28;20137;-70
2023/04/01 03:57:14;;;;;;;41.05;17.10;;;10.80;99.90;;;;;;5094355;28;20490;-71
2023/04/01 03:59:39;;;;;;;38.10;16.75;;;10.80;99.90;;;;;;5092495;28;20086;-71
2023/04/01 04:02:05;;;;;;;36.22;15.10;;;10.80;99.90;;;;;;5092554;28;20480;-70
2023/04/01 04:04:31;;;;;;;35.90;14.32;;;10.80;99.90;;;;;;5094672;28;20658;-70
2023/04/01 04:06:57;;;;;;;37.08;15.23;;;10.70;99.90;;;;;;5094077;28;20103;-70
2023/04/01 04:09:23;;;;;;;46.58;18.23;;;10.70;99.90;;;;;;5094476;28;20127;-71
2023/04/01 04:11:49;;;;;;;48.08;17.30;;;10.70;99.90;;;;;;5092868;28;20125;-71
2023/04/01 04:14:15;;;;;;;42.40;16.92;;;10.70;99.90;;;;;;5084081;28;20036;-71
2023/04/01 04:16:41;;;;;;;49.92;17.92;;;10.70;99.90;;;;;;5082959;28;20032;-70
2023/04/01 04:19:06;;;;;;;43.45;17.00;;;10.60;99.90;;;;;;5094618;28;20036;-72
2023/04/01 04:21:32;;;;;;;39.08;15.93;;;10.70;99.90;;;;;;5093304;28;20039;-70
2023/04/01 04:23:59;;;;;;;42.65;15.88;;;10.60;99.90;;;;;;5094432;28;20036;-70
2023/04/01 04:26:25;;;;;;;37.15;15.63;;;10.60;99.90;;;;;;5093737;28;20561;-70
2023/04/01 04:28:51;;;;;;;39.20;14.95;;;10.60;99.90;;;;;;5093892;28;20071;-72
2023/04/01 04:31:24;;;;;;;37.42;14.07;;;10.60;99.90;;;;;;5092345;28;20039;-70
2023/04/01 04:33:51;;;;;;;31.75;11.93;;;10.60;99.90;;;;;;5094009;28;20113;-70
2023/04/01 04:36:16;;;;;;;35.72;13.13;;;10.70;99.90;;;;;;5094167;28;20070;-72
2023/04/01 04:38:42;;;;;;;37.58;12.48;;;10.70;99.90;;;;;;5094139;28;20051;-71
2023/04/01 04:41:12;;;;;;;37.55;13.88;;;10.70;99.90;;;;;;5092175;28;20028;-71
2023/04/01 04:43:39;;;;;;;39.80;14.00;;;10.70;99.90;;;;;;5093389;28;20032;-71
2023/04/01 04:46:09;;;;;;;33.25;11.35;;;10.60;99.90;;;;;;5089975;28;20020;-70
2023/04/01 04:48:35;;;;;;;32.53;12.32;;;10.60;99.90;;;;;;5093620;28;20036;-71
2023/04/01 04:51:01;;;;;;;37.30;14.00;;;10.60;99.90;;;;;;5091847;28;20044;-71
2023/04/01 04:53:27;;;;;;;39.40;14.32;;;10.50;99.90;;;;;;5093472;28;20028;-71
2023/04/01 04:55:53;;;;;;;41.35;16.83;;;10.50;99.90;;;;;;5093281;28;20022;-71
2023/04/01 04:58:19;;;;;;;51.58;19.70;;;10.50;99.90;;;;;;5093566;28;20024;-71
2023/04/01 05:00:45;;;;;;;40.75;16.95;;;10.50;99.90;;;;;;5091685;28;20056;-71
2023/04/01 05:03:11;;;;;;;43.15;19.63;;;10.50;99.90;;;;;;5093451;28;20030;-71
2023/04/01 05:05:37;;;;;;;39.08;15.98;;;10.60;99.90;;;;;;5093326;28;20039;-71
2023/04/01 05:08:03;;;;;;;47.22;20.15;;;10.60;99.90;;;;;;5092415;28;20062;-71
2023/04/01 05:10:29;;;;;;;50.40;20.98;;;10.60;99.90;;;;;;5089355;28;20434;-71
2023/04/01 05:12:54;;;;;;;55.10;22.77;;;10.60;99.90;;;;;;5092238;28;20074;-71
2023/04/01 05:15:20;;;;;;;63.00;25.92;;;10.60;99.90;;;;;;5093032;28;20028;-71
2023/04/01 05:17:46;;;;;;;64.05;27.17;;;10.60;99.90;;;;;;5092868;28;20410;-71
2023/04/01 05:20:13;;;;;;;64.07;22.52;;;10.60;99.90;;;;;;5092239;28;20020;-71
2023/04/01 05:22:38;;;;;;;60.83;21.15;;;10.60;99.90;;;;;;5093266;28;20020;-71
2023/04/01 05:25:05;;;;;;;60.35;18.20;;;10.60;99.90;;;;;;5092770;28;20052;-70
2023/04/01 05:27:31;;;;;;;41.30;14.75;;;10.60;99.90;;;;;;5092393;28;20483;-70
2023/04/01 05:29:57;;;;;;;40.65;14.55;;;10.50;99.90;;;;;;5090252;28;20492;-71
2023/04/01 05:32:22;;;;;;;43.88;17.17;;;10.50;99.90;;;;;;5092120;28;20043;-71
2023/04/01 05:34:51;;;;;;;43.65;16.65;;;10.50;99.90;;;;;;5092005;28;20036;-71
2023/04/01 05:37:16;;;;;;;40.10;13.82;;;10.50;99.90;;;;;;5091825;28;20028;-71
2023/04/01 05:39:42;;;;;;;43.40;17.50;;;10.40;99.90;;;;;;5092785;28;20040;-71
2023/04/01 05:42:08;;;;;;;49.20;20.30;;;10.50;99.90;;;;;;5090924;28;20040;-71
2023/04/01 05:44:34;;;;;;;42.63;19.67;;;10.40;99.90;;;;;;5092658;28;20028;-69
2023/04/01 05:47:00;;;;;;;49.83;20.15;;;10.40;99.90;;;;;;5092168;28;20027;-71
2023/04/01 05:49:25;;;;;;;48.38;18.30;;;10.40;99.90;;;;;;5090830;28;20450;-71
2023/04/01 05:51:51;;;;;;;47.83;20.50;;;10.40;99.90;;;;;;5090355;28;20034;-71
2023/04/01 05:54:17;;;;;;;55.15;21.25;;;10.40;99.90;;;;;;5091872;28;20039;-71
2023/04/01 05:56:42;;;;;;;55.22;20.35;;;10.40;99.90;;;;;;5091584;28;20028;-71
2023/04/01 05:59:10;;;;;;;72.20;27.00;;;10.50;99.90;;;;;;5092660;28;20107;-71
2023/04/01 06:01:36;;;;;;;68.00;25.45;;;10.50;99.90;;;;;;5090322;28;20077;-71
2023/04/01 06:04:01;;;;;;;64.93;25.85;;;10.50;99.90;;;;;;5092471;28;20020;-71
2023/04/01 06:06:29;;;;;;;73.53;27.35;;;10.50;99.90;;;;;;5092347;28;20448;-71
2023/04/01 06:08:57;;;;;;;73.65;28.77;;;10.60;99.90;;;;;;5092414;28;20438;-71
2023/04/01 06:11:45;;;;;;;67.00;26.65;;;10.60;99.90;;;;;;5091514;28;20077;-71
2023/04/01 06:14:47;;;;;;;64.50;24.52;;;10.60;99.90;;;;;;5092481;28;20521;-71
2023/04/01 06:17:48;;;;;;;61.10;24.58;;;10.50;99.90;;;;;;5092644;28;20098;-71
2023/04/01 06:20:52;;;;;;;65.53;24.85;;;10.60;99.90;;;;;;5090289;28;20138;-71
2023/04/01 06:23:30;;;;;;;57.67;22.73;;;10.60;99.90;;;;;;5090488;28;20030;-71
2023/04/01 06:26:08;;;;;;;57.88;20.80;;;10.60;99.90;;;;;;5096438;28;20054;-71
2023/04/01 06:28:36;;;;;;;52.67;19.50;;;10.60;99.90;;;;;;5095960;28;20043;-71
2023/04/01 06:31:26;;;;;;;46.17;17.55;;;10.60;99.90;;;;;;5094554;28;20158;-71
2023/04/01 06:34:16;;;;;;;48.95;18.33;;;10.60;99.90;;;;;;5095879;28;20480;-71
2023/04/01 06:37:08;;;;;;;38.97;14.27;;;10.70;99.90;;;;;;5096018;28;20040;-71
2023/04/01 06:39:40;;;;;;;43.15;15.35;;;10.80;99.90;;;;;;5064726;28;20032;-71
2023/04/01 06:42:15;;;;;;;36.28;13.23;;;10.80;99.90;;;;;;5095239;28;20058;-71
2023/04/01 06:45:17;;;;;;;41.28;15.13;;;10.90;99.90;;;;;;5096516;28;20028;-71
2023/04/01 06:47:57;;;;;;;33.55;12.43;;;11.00;99.90;;;;;;5096048;28;20114;-71
2023/04/01 06:50:48;;;;;;;31.58;12.10;;;11.00;99.90;;;;;;5093113;28;20474;-71
2023/04/01 06:53:42;;;;;;;33.00;12.18;;;11.00;99.90;;;;;;5095051;28;20487;-71
2023/04/01 06:56:14;;;;;;;27.83;10.95;;;11.00;99.90;;;;;;5095823;28;20024;-71
2023/04/01 06:59:16;;;;;;;24.20;10.05;;;11.00;99.90;;;;;;5095492;28;20055;-71
2023/04/01 07:01:55;;;;;;;30.08;9.75;;;11.00;99.90;;;;;;5091882;28;20085;-71
2023/04/01 07:04:27;;;;;;;29.05;11.75;;;11.00;99.90;;;;;;5094052;28;20040;-71
2023/04/01 07:07:03;;;;;;;25.05;9.68;;;11.10;99.90;;;;;;5096017;28;20020;-71
2023/04/01 07:09:35;;;;;;;24.48;9.90;;;11.10;99.90;;;;;;5095996;28;20051;-71
2023/04/01 07:12:02;;;;;;;;;;;11.10;99.90;;;;;;5091438;28;20043;-71
2023/04/01 07:14:36;;;;;;;26.88;9.45;;;11.20;99.90;;;;;;5095628;28;19908;-71
2023/04/01 07:17:08;;;;;;;29.88;11.75;;;11.20;99.90;;;;;;5095597;28;20024;-71
2023/04/01 07:19:44;;;;;;;24.40;10.02;;;11.30;99.90;;;;;;5094003;28;20020;-71
2023/04/01 07:22:44;;;;;;;30.50;11.73;;;11.40;99.90;;;;;;5095596;28;20540;-70
2023/04/01 07:25:25;;;;;;;27.17;11.93;;;11.40;99.90;;;;;;5093750;28;20399;-71
2023/04/01 07:27:56;;;;;;;29.08;11.38;;;11.40;99.90;;;;;;5092370;28;20036;-71
2023/04/01 07:30:24;;;;;;;31.23;12.65;;;11.50;99.90;;;;;;5093784;28;20475;-71
2023/04/01 07:33:03;;;;;;;33.10;14.80;;;11.50;99.90;;;;;;5095183;28;20035;-71
2023/04/01 07:36:00;;;;;;;44.65;17.20;;;11.50;99.90;;;;;;5095290;28;20110;-71
2023/04/01 07:38:26;;;;;;;45.85;19.92;;;11.60;99.90;;;;;;5094483;28;20028;-71
2023/04/01 07:41:21;;;;;;;45.60;17.50;;;11.70;99.90;;;;;;5094021;28;20460;-71
2023/04/01 07:44:11;;;;;;;48.00;18.15;;;11.80;99.90;;;;;;5093654;28;20066;-71
2023/04/01 07:47:06;;;;;;;31.60;14.77;;;11.90;99.90;;;;;;5095050;28;20020;-71
2023/04/01 07:49:43;;;;;;;29.40;11.80;;;11.90;99.90;;;;;;5077549;28;20353;-71
2023/04/01 07:52:31;;;;;;;38.40;16.48;;;11.90;99.90;;;;;;5093763;28;20039;-71
2023/04/01 07:55:08;;;;;;;41.72;17.83;;;12.00;99.90;;;;;;5092246;28;20020;-71
2023/04/01 07:57:57;;;;;;;44.78;20.92;;;12.10;99.90;;;;;;5092172;28;20315;-71
2023/04/01 08:00:29;;;;;;;46.92;21.45;;;12.20;99.90;;;;;;5091806;28;20024;-71
2023/04/01 08:03:19;;;;;;;41.00;17.48;;;12.20;99.90;;;;;;5087681;28;20147;-71
2023/04/01 08:06:02;;;;;;;45.17;19.80;;;12.20;99.90;;;;;;5077783;28;20053;-70
2023/04/01 08:08:50;;;;;;;43.53;18.65;;;12.30;99.90;;;;;;5094667;28;20127;-71
2023/04/01 08:11:52;;;;;;;31.30;12.05;;;12.40;99.90;;;;;;5085319;28;20086;-71
2023/04/01 08:14:41;;;;;;;27.42;11.93;;;12.30;99.90;;;;;;5078173;28;20028;-71
2023/04/01 08:17:40;;;;;;;30.80;11.23;;;12.30;99.90;;;;;;5094308;28;20353;-71
2023/04/01 08:20:27;;;;;;;29.63;12.82;;;12.30;99.90;;;;;;5090631;28;20039;-71
2023/04/01 08:23:16;;;;;;;23.70;9.80;;;12.50;99.90;;;;;;5092339;28;20024;-71
2023/04/01 08:25:50;;;;;;;23.48;9.68;;;12.60;99.90;;;;;;5094419;28;20101;-71
2023/04/01 08:28:19;;;;;;;26.48;9.18;;;12.60;99.90;;;;;;5093269;28;20052;-71
2023/04/01 08:30:58;;;;;;;19.50;8.05;;;12.70;99.90;;;;;;5092266;28;20032;-71
2023/04/01 08:33:27;;;;;;;18.83;8.43;;;12.70;99.90;;;;;;5080199;28;20028;-70
2023/04/01 08:36:07;;;;;;;23.05;8.27;;;12.80;99.90;;;;;;5080940;28;20028;-70
2023/04/01 08:38:57;;;;;;;18.38;6.95;;;12.80;99.90;;;;;;5086925;28;20085;-72
2023/04/01 08:41:31;;;;;;;19.58;7.53;;;12.90;99.90;;;;;;5090344;28;20030;-72
2023/04/01 08:44:34;;;;;;;12.63;5.50;;;12.90;99.90;;;;;;5088037;28;20028;-71
2023/04/01 08:47:22;;;;;;;14.48;5.85;;;12.80;99.90;;;;;;5087543;28;20031;-69
2023/04/01 08:49:48;;;;;;;14.15;5.57;;;12.80;99.90;;;;;;5090497;28;20040;-71
2023/04/01 08:52:33;;;;;;;14.73;6.20;;;12.80;99.90;;;;;;5092088;28;20085;-71
2023/04/01 08:55:24;;;;;;;14.77;5.80;;;12.70;99.90;;;;;;5078691;28;20145;-70
2023/04/01 08:58:14;;;;;;;15.80;5.90;;;12.80;99.90;;;;;;5055458;28;20040;-70
2023/04/01 09:00:52;;;;;;;12.85;5.18;;;12.70;99.90;;;;;;5090351;28;20032;-71
2023/04/01 09:03:40;;;;;;;11.15;4.57;;;12.80;99.90;;;;;;5082803;28;20073;-68
2023/04/01 09:06:14;;;;;;;14.52;6.20;;;12.80;99.90;;;;;;5087681;28;20036;-71
2023/04/01 09:08:58;;;;;;;15.52;6.57;;;12.70;99.90;;;;;;5088899;28;20135;-73
2023/04/01 09:11:51;;;;;;;20.25;8.95;;;12.70;99.90;;;;;;5090441;28;20049;-72
2023/04/01 09:14:31;;;;;;;17.83;7.72;;;12.70;99.90;;;;;;5087635;28;20138;-72
2023/04/01 09:17:46;;;;;;;20.48;8.20;;;12.60;99.90;;;;;;5089251;28;20667;-72
2023/04/01 09:20:42;;;;;;;20.65;9.65;;;12.60;99.90;;;;;;5053981;28;20065;-69
2023/04/01 09:23:14;;;;;;;22.67;9.25;;;12.60;99.90;;;;;;5092327;28;20031;-72
2023/04/01 09:25:58;;;;;;;21.30;7.80;;;12.60;99.90;;;;;;5092206;28;20506;-68
2023/04/01 09:28:49;;;;;;;23.17;9.48;;;12.70;99.90;;;;;;5087712;28;20093;-71
2023/04/01 09:31:30;;;;;;;22.33;8.43;;;12.80;99.90;;;;;;5086365;28;20058;-70
2023/04/01 09:34:37;;;;;;;20.48;8.05;;;12.90;99.90;;;;;;5089891;28;20489;-70
2023/04/01 09:37:14;;;;;;;20.65;8.70;;;12.90;99.90;;;;;;5078288;28;20028;-68
2023/04/01 09:40:10;;;;;;;19.17;8.73;;;12.90;99.90;;;;;;5091558;28;20115;-70
2023/04/01 09:42:56;;;;;;;21.17;9.55;;;12.90;99.90;;;;;;5090374;28;20111;-70
2023/04/01 09:45:52;;;;;;;17.90;7.30;;;12.90;99.90;;;;;;5088249;28;20082;-69
2023/04/01 09:48:39;;;;;;;16.13;7.18;;;12.80;99.90;;;;;;5088193;28;20502;-70
2023/04/01 09:51:24;;;;;;;21.50;8.43;;;12.80;99.90;;;;;;5085621;28;20032;-71
2023/04/01 09:54:08;;;;;;;21.23;9.10;;;12.80;99.90;;;;;;5091365;28;20073;-70
2023/04/01 09:57:24;;;;;;;21.33;9.13;;;12.90;99.90;;;;;;5087944;28;20056;-68
2023/04/01 10:00:01;;;;;;;22.25;9.10;;;13.00;99.90;;;;;;5054265;28;20127;-69
2023/04/01 10:02:36;;;;;;;19.55;7.82;;;12.90;99.90;;;;;;5091147;28;20114;-69
2023/04/01 10:05:34;;;;;;;21.88;8.60;;;12.90;99.90;;;;;;5089689;28;20047;-68
2023/04/01 10:08:23;;;;;;;24.75;9.23;;;12.80;99.90;;;;;;5081794;28;20055;-71
2023/04/01 10:11:19;;;;;;;25.85;9.73;;;12.70;99.90;;;;;;5091695;28;20035;-70
2023/04/01 10:14:16;;;;;;;23.83;9.90;;;12.70;99.90;;;;;;5091052;28;20081;-70
2023/04/01 10:16:51;;;;;;;19.67;8.10;;;12.80;99.90;;;;;;5089914;28;20075;-71
2023/04/01 10:19:43;;;;;;;20.00;9.15;;;12.90;99.90;;;;;;5082939;28;20039;-73
2023/04/01 10:22:23;;;;;;;;;;;13.10;99.90;;;;;;5076606;28;20036;-70
2023/04/01 10:25:27;;;;;;;17.73;6.95;;;13.20;99.90;;;;;;5090964;28;19977;-69
2023/04/01 10:28:30;;;;;;;18.95;8.02;;;13.20;99.90;;;;;;5087280;28;20067;-70
2023/04/01 10:31:05;;;;;;;20.45;7.80;;;13.30;99.90;;;;;;5081479;28;20028;-70
2023/04/01 10:34:19;;;;;;;19.75;7.93;;;13.30;99.90;;;;;;5090389;28;20044;-70
2023/04/01 10:36:56;;;;;;;28.58;13.10;;;13.30;99.90;;;;;;4999461;28;20060;-71
2023/04/01 10:40:02;;;;;;;28.75;11.65;;;13.30;99.90;;;;;;5006898;28;20058;-72
2023/04/01 10:43:06;;;;;;;30.45;13.27;;;13.40;99.90;;;;;;4982115;28;20057;-71
2023/04/01 10:46:00;;;;;;;25.13;11.27;;;13.60;99.90;;;;;;5091464;28;20025;-71
2023/04/01 10:48:53;;;;;;;26.25;10.48;;;13.90;99.90;;;;;;5089016;28;20040;-70
2023/04/01 10:52:03;;;;;;;20.38;8.48;;;14.40;99.90;;;;;;5076179;28;20028;-70
2023/04/01 10:54:43;;;;;;;23.90;11.70;;;14.90;99.90;;;;;;5091663;28;20491;-70
2023/04/01 10:57:32;;;;;;;23.50;10.77;;;15.50;99.90;;;;;;5086892;28;20079;-69
2023/04/01 11:00:31;;;;;;;19.52;8.55;;;15.80;99.90;;;;;;5084967;28;20021;-70
2023/04/01 11:03:31;;;;;;;21.60;9.73;;;16.10;99.90;;;;;;5085124;28;20039;-70
2023/04/01 11:06:28;;;;;;;17.85;7.70;;;16.10;99.90;;;;;;5081015;28;20042;-69
2023/04/01 11:09:27;;;;;;;26.90;13.00;;;16.10;99.90;;;;;;5080794;28;20047;-69
2023/04/01 11:12:14;;;;;;;25.02;13.43;;;16.10;99.90;;;;;;5090585;28;20032;-69
2023/04/01 11:14:52;;;;;;;26.20;12.15;;;16.00;99.90;;;;;;5093455;28;20372;-71
2023/04/01 11:17:55;;;;;;;27.48;12.63;;;15.90;99.90;;;;;;5090353;28;20115;-69
2023/04/01 11:20:24;;;;;;;22.08;8.82;;;15.80;99.90;;;;;;5093189;28;21287;-69
2023/04/01 11:23:08;;;;;;;16.83;8.52;;;15.70;99.90;;;;;;5091490;28;20032;-69
2023/04/01 11:25:49;;;;;;;24.90;9.68;;;15.70;99.90;;;;;;5090886;28;20044;-71
2023/04/01 11:28:30;;;;;;;22.98;10.43;;;15.90;99.90;;;;;;5084455;28;20028;-69
2023/04/01 11:31:04;;;;;;;27.40;12.93;;;16.00;99.90;;;;;;5083947;28;20082;-68
2023/04/01 11:33:35;;;;;;;21.05;10.35;;;16.10;99.90;;;;;;5087384;28;20032;-69
2023/04/01 11:36:25;;;;;;;27.70;12.97;;;16.30;99.90;;;;;;5080627;28;20028;-70
2023/04/01 11:38:54;;;;;;;21.08;9.45;;;16.40;99.90;;;;;;5094519;28;20264;-69
2023/04/01 11:41:36;;;;;;;15.15;6.55;;;16.60;99.90;;;;;;5093556;28;20023;-69
2023/04/01 11:44:19;;;;;;;20.98;9.70;;;16.80;99.90;;;;;;5092454;28;20036;-69
2023/04/01 11:47:03;;;;;;;12.45;4.97;;;16.90;99.90;;;;;;5094319;28;20061;-70
2023/04/01 11:49:52;;;;;;;17.17;7.90;;;16.80;99.90;;;;;;5094448;28;20046;-71
2023/04/01 11:52:51;;;;;;;23.55;10.35;;;16.60;99.90;;;;;;5093116;28;20539;-70
2023/04/01 11:55:40;;;;;;;31.60;14.45;;;16.40;99.90;;;;;;5087175;28;20059;-70
2023/04/01 11:58:33;;;;;;;29.73;15.43;;;16.40;99.90;;;;;;5079538;28;20024;-72
2023/04/01 12:01:16;;;;;;;;;;;16.20;99.90;;;;;;5085357;28;20540;-69
2023/04/01 12:04:07;;;;;;;33.67;15.07;;;16.10;99.90;;;;;;5088033;28;19907;-71
2023/04/01 12:06:54;;;;;;;23.52;11.55;;;15.90;99.90;;;;;;5078404;28;20444;-71
2023/04/01 12:09:40;;;;;;;28.73;14.80;;;15.70;99.90;;;;;;5093368;28;20128;-71
2023/04/01 12:12:17;;;;;;;25.50;13.20;;;15.50;99.90;;;;;;5084487;28;20456;-71
2023/04/01 12:15:10;;;;;;;27.80;11.55;;;15.30;99.90;;;;;;5087490;28;20103;-71
2023/04/01 12:18:05;;;;;;;23.60;10.52;;;15.00;99.90;;;;;;5090957;28;20058;-70
2023/04/01 12:21:09;;;;;;;23.58;9.25;;;14.90;99.90;;;;;;5081392;28;20530;-70
2023/04/01 12:24:07;;;;;;;23.13;7.95;;;14.90;99.90;;;;;;5091565;28;20036;-70
2023/04/01 12:26:46;;;;;;;16.98;7.03;;;15.00;99.90;;;;;;5082925;28;20036;-70
2023/04/01 12:29:24;;;;;;;18.25;7.05;;;15.40;99.90;;;;;;5090227;28;20584;-71
2023/04/01 12:32:11;;;;;;;13.85;6.95;;;15.60;99.90;;;;;;5079475;28;20036;-69
2023/04/01 12:35:03;;;;;;;10.55;4.68;;;16.00;99.90;;;;;;5088279;28;20020;-69
2023/04/01 12:37:55;;;;;;;18.67;7.30;;;16.50;99.90;;;;;;5092810;28;20437;-69
2023/04/01 12:40:45;;;;;;;14.47;7.73;;;16.70;99.90;;;;;;5076722;28;20028;-69
2023/04/01 12:43:53;;;;;;;8.60;3.85;;;16.80;99.90;;;;;;5091743;28;20111;-69
2023/04/01 12:46:37;;;;;;;9.80;4.38;;;17.10;99.90;;;;;;5073773;28;20028;-70
2023/04/01 12:49:21;;;;;;;15.55;6.95;;;16.90;99.90;;;;;;5086653;28;20047;-69
2023/04/01 12:52:02;;;;;;;8.35;3.63;;;16.70;99.90;;;;;;5089776;28;20099;-69
2023/04/01 12:54:30;;;;;;;9.88;4.63;;;16.30;99.90;;;;;;5093682;28;20097;-70
2023/04/01 12:57:18;;;;;;;12.48;4.05;;;15.80;99.90;;;;;;5093422;28;20035;-70
2023/04/01 13:00:21;;;;;;;7.40;4.18;;;15.50;99.90;;;;;;5090487;28;20042;-69
2023/04/01 13:03:09;;;;;;;10.35;5.57;;;15.40;99.90;;;;;;5088420;28;20035;-69
2023/04/01 13:05:46;;;;;;;12.38;5.55;;;15.10;99.90;;;;;;5080281;28;20041;-71
2023/04/01 13:08:18;;;;;;;11.88;4.50;;;14.80;99.90;;;;;;5076525;28;20484;-71
2023/04/01 13:11:02;;;;;;;15.40;5.50;;;14.40;99.90;;;;;;5086664;28;20032;-72
2023/04/01 13:13:41;;;;;;;17.05;4.97;;;14.10;99.90;;;;;;5082595;28;20032;-71
2023/04/01 13:16:19;;;;;;;13.25;5.25;;;13.70;99.90;;;;;;5091881;28;20093;-71
2023/04/01 13:18:58;;;;;;;11.48;5.43;;;13.50;99.90;;;;;;5075327;28;20059;-72
2023/04/01 13:21:45;;;;;;;13.20;4.85;;;13.20;99.90;;;;;;5080743;28;20032;-72
2023/04/01 13:24:26;;;;;;;16.85;7.30;;;13.00;99.90;;;;;;5076900;28;20028;-72